sensor_id;sensor_type;location;lat;lon;timestamp;temperature;humidity
23291;DHT22;11814;44.686;10.842;2023-12-28T00:00:26;9.90;99.90
23291;DHT22;11814;44.686;10.842;2023-12-28T00:02:52;9.80;99.90
23291;DHT22;11814;44.686;10.842;2023-12-28T00:05:17;9.80;99.90
23291;DHT22;11814;44.686;10.842;2023-12-28T00:07:43;9.70;99.90
23291;DHT22;11814;44.686;10.842;2023-12-28T00:10:09;9.70;99.90
23291;DHT22;11814;44.686;10.842;2023-12-28T00:12:35;9.70;99.90
23291;DHT22;11814;44.686;10.842;2023-12-28T00:15:01;9.60;99.90
23291;DHT22;11814;44.686;10.842;2023-12-28T00:17:26;9.60;99.90
23291;DHT22;11814;44.686;10.842;2023-12-28T00:19:52;9.50;99.90
23291;DHT22;11814;44.686;10.842;2023-12-28T00:22:17;9.50;99.90
23291;DHT22;11814;44.686;10.842;2023-12-28T00:24:43;9.50;99.90
23291;DHT22;11814;44.686;10.842;2023-12-28T00:27:09;9.40;99.90
23291;DHT22;11814;44.686;10.842;2023-12-28T00:29:34;9.40;99.90
23291;DHT22;11814;44.686;10.842;2023-12-28T00:32:05;9.30;99.90
23291;DHT22;11814;44.686;10.842;2023-12-28T00:34:30;9.20;99.90
23291;DHT22;11814;44.686;10.842;2023-12-28T00:36:56;9.30;99.90
23291;DHT22;11814;44.686;10.842;2023-12-28T00:39:22;9.20;99.90
23291;DHT22;11814;44.686;10.842;2023-12-28T00:41:47;9.20;99.90
23291;DHT22;11814;44.686;10.842;2023-12-28T00:44:13;9.10;99.90
23291;DHT22;11814;44.686;10.842;2023-12-28T00:46:38;9.10;99.90
23291;DHT22;11814;44.686;10.842;2023-12-28T00:49:04;9.10;99.90
23291;DHT22;11814;44.686;10.842;2023-12-28T00:51:30;9.00;99.90
23291;DHT22;11814;44.686;10.842;2023-12-28T00:53:55;8.90;99.90
23291;DHT22;11814;44.686;10.842;2023-12-28T00:56:21;8.80;99.90
23291;DHT22;11814;44.686;10.842;2023-12-28T00:58:47;8.80;99.90
23291;DHT22;11814;44.686;10.842;2023-12-28T01:01:12;8.80;99.90
23291;DHT22;11814;44.686;10.842;2023-12-28T01:03:38;8.70;99.90
23291;DHT22;11814;44.686;10.842;2023-12-28T01:06:06;8.70;99.90
23291;DHT22;11814;44.686;10.842;2023-12-28T01:08:32;8.60;99.90
23291;DHT22;11814;44.686;10.842;2023-12-28T01:11:04;8.60;99.90
23291;DHT22;11814;44.686;10.842;2023-12-28T01:13:29;8.60;99.90
23291;DHT22;11814;44.686;10.842;2023-12-28T01:15:56;8.50;99.90
23291;DHT22;11814;44.686;10.842;2023-12-28T01:18:22;8.50;99.90
23291;DHT22;11814;44.686;10.842;2023-12-28T01:20:47;8.50;99.90
23291;DHT22;11814;44.686;10.842;2023-12-28T01:23:13;8.50;99.90
23291;DHT22;11814;44.686;10.842;2023-12-28T01:25:38;8.50;99.90
23291;DHT22;11814;44.686;10.842;2023-12-28T01:28:04;8.50;99.90
23291;DHT22;11814;44.686;10.842;2023-12-28T01:30:30;8.40;99.90
23291;DHT22;11814;44.686;10.842;2023-12-28T01:32:55;8.40;99.90
23291;DHT22;11814;44.686;10.842;2023-12-28T01:35:21;8.30;99.90
23291;DHT22;11814;44.686;10.842;2023-12-28T01:37:46;8.30;99.90
23291;DHT22;11814;44.686;10.842;2023-12-28T01:40:12;8.20;99.90
23291;DHT22;11814;44.686;10.842;2023-12-28T01:42:38;8.20;99.90
23291;DHT22;11814;44.686;10.842;2023-12-28T01:45:05;8.20;99.90
23291;DHT22;11814;44.686;10.842;2023-12-28T01:47:30;8.20;99.90
23291;DHT22;11814;44.686;10.842;2023-12-28T01:49:57;8.10;99.90
23291;DHT22;11814;44.686;10.842;2023-12-28T01:52:23;8.10;99.90
23291;DHT22;11814;44.686;10.842;2023-12-28T01:54:49;8.00;99.90
23291;DHT22;11814;44.686;10.842;2023-12-28T01:57:15;8.00;99.90
23291;DHT22;11814;44.686;10.842;2023-12-28T01:59:42;7.90;99.90
23291;DHT22;11814;44.686;10.842;2023-12-28T02:02:08;7.90;99.90
23291;DHT22;11814;44.686;10.842;2023-12-28T02:04:34;7.80;99.90
23291;DHT22;11814;44.686;10.842;2023-12-28T02:07:00;7.90;99.90
23291;DHT22;11814;44.686;10.842;2023-12-28T02:09:26;7.80;99.90
23291;DHT22;11814;44.686;10.842;2023-12-28T02:11:53;7.70;99.90
23291;DHT22;11814;44.686;10.842;2023-12-28T02:14:20;7.70;99.90
23291;DHT22;11814;44.686;10.842;2023-12-28T02:16:53;7.60;99.90
23291;DHT22;11814;44.686;10.842;2023-12-28T02:19:39;7.60;99.90
23291;DHT22;11814;44.686;10.842;2023-12-28T02:22:07;7.50;99.90
23291;DHT22;11814;44.686;10.842;2023-12-28T02:24:36;7.50;99.90
23291;DHT22;11814;44.686;10.842;2023-12-28T02:27:02;7.50;99.90
23291;DHT22;11814;44.686;10.842;2023-12-28T02:29:28;7.40;99.90
23291;DHT22;11814;44.686;10.842;2023-12-28T02:32:01;7.40;99.90
23291;DHT22;11814;44.686;10.842;2023-12-28T02:34:34;7.30;99.90
23291;DHT22;11814;44.686;10.842;2023-12-28T02:37:03;7.30;99.90
23291;DHT22;11814;44.686;10.842;2023-12-28T02:39:30;7.30;99.90
23291;DHT22;11814;44.686;10.842;2023-12-28T02:41:56;7.30;99.90
23291;DHT22;11814;44.686;10.842;2023-12-28T02:44:21;7.30;99.90
23291;DHT22;11814;44.686;10.842;2023-12-28T02:46:47;7.20;99.90
23291;DHT22;11814;44.686;10.842;2023-12-28T02:49:13;7.20;99.90
23291;DHT22;11814;44.686;10.842;2023-12-28T02:51:40;7.10;99.90
23291;DHT22;11814;44.686;10.842;2023-12-28T02:54:08;7.10;99.90
23291;DHT22;11814;44.686;10.842;2023-12-28T02:56:33;7.10;99.90
23291;DHT22;11814;44.686;10.842;2023-12-28T02:58:59;7.00;99.90
23291;DHT22;11814;44.686;10.842;2023-12-28T03:01:25;7.00;99.90
23291;DHT22;11814;44.686;10.842;2023-12-28T03:03:51;6.90;99.90
23291;DHT22;11814;44.686;10.842;2023-12-28T03:06:16;6.90;99.90
23291;DHT22;11814;44.686;10.842;2023-12-28T03:08:42;6.90;99.90
23291;DHT22;11814;44.686;10.842;2023-12-28T03:11:07;6.90;99.90
23291;DHT22;11814;44.686;10.842;2023-12-28T03:13:33;6.90;99.90
23291;DHT22;11814;44.686;10.842;2023-12-28T03:15:58;6.80;99.90
23291;DHT22;11814;44.686;10.842;2023-12-28T03:18:24;6.80;99.90
23291;DHT22;11814;44.686;10.842;2023-12-28T03:20:50;6.80;99.90
23291;DHT22;11814;44.686;10.842;2023-12-28T03:23:15;6.80;99.90
23291;DHT22;11814;44.686;10.842;2023-12-28T03:25:41;6.80;99.90
23291;DHT22;11814;44.686;10.842;2023-12-28T03:28:06;6.80;99.90
23291;DHT22;11814;44.686;10.842;2023-12-28T03:30:32;6.80;99.90
23291;DHT22;11814;44.686;10.842;2023-12-28T03:32:58;6.70;99.90
23291;DHT22;11814;44.686;10.842;2023-12-28T03:35:23;6.80;99.90
23291;DHT22;11814;44.686;10.842;2023-12-28T03:37:49;6.80;99.90
23291;DHT22;11814;44.686;10.842;2023-12-28T03:40:15;6.70;99.90
23291;DHT22;11814;44.686;10.842;2023-12-28T03:42:41;6.80;99.90
23291;DHT22;11814;44.686;10.842;2023-12-28T03:45:07;6.70;99.90
23291;DHT22;11814;44.686;10.842;2023-12-28T03:47:33;6.70;99.90
23291;DHT22;11814;44.686;10.842;2023-12-28T03:49:58;6.60;99.90
23291;DHT22;11814;44.686;10.842;2023-12-28T03:52:27;6.60;99.90
23291;DHT22;11814;44.686;10.842;2023-12-28T03:54:55;6.70;99.90
23291;DHT22;11814;44.686;10.842;2023-12-28T03:57:21;6.60;99.90
23291;DHT22;11814;44.686;10.842;2023-12-28T03:59:46;6.70;99.90
23291;DHT22;11814;44.686;10.842;2023-12-28T04:02:13;6.60;99.90
23291;DHT22;11814;44.686;10.842;2023-12-28T04:04:38;6.60;99.90
23291;DHT22;11814;44.686;10.842;2023-12-28T04:07:04;6.60;99.90
23291;DHT22;11814;44.686;10.842;2023-12-28T04:09:33;6.60;99.90
23291;DHT22;11814;44.686;10.842;2023-12-28T04:11:58;6.70;99.90
23291;DHT22;11814;44.686;10.842;2023-12-28T04:14:24;6.60;99.90
23291;DHT22;11814;44.686;10.842;2023-12-28T04:16:49;6.60;99.90
23291;DHT22;11814;44.686;10.842;2023-12-28T04:19:15;6.60;99.90
23291;DHT22;11814;44.686;10.842;2023-12-28T04:21:43;6.50;99.90
23291;DHT22;11814;44.686;10.842;2023-12-28T04:24:09;6.40;99.90
23291;DHT22;11814;44.686;10.842;2023-12-28T04:26:35;6.40;99.90
23291;DHT22;11814;44.686;10.842;2023-12-28T04:29:01;6.30;99.90
23291;DHT22;11814;44.686;10.842;2023-12-28T04:31:26;6.20;99.90
23291;DHT22;11814;44.686;10.842;2023-12-28T04:33:52;6.20;99.90
23291;DHT22;11814;44.686;10.842;2023-12-28T04:36:18;6.20;99.90
23291;DHT22;11814;44.686;10.842;2023-12-28T04:38:43;6.20;99.90
23291;DHT22;11814;44.686;10.842;2023-12-28T04:41:09;6.20;99.90
23291;DHT22;11814;44.686;10.842;2023-12-28T04:43:35;6.20;99.90
23291;DHT22;11814;44.686;10.842;2023-12-28T04:46:04;6.20;99.90
23291;DHT22;11814;44.686;10.842;2023-12-28T04:48:34;6.20;99.90
23291;DHT22;11814;44.686;10.842;2023-12-28T04:51:02;6.10;99.90
23291;DHT22;11814;44.686;10.842;2023-12-28T04:53:28;6.10;99.90
23291;DHT22;11814;44.686;10.842;2023-12-28T04:55:55;6.00;99.90
23291;DHT22;11814;44.686;10.842;2023-12-28T04:58:21;6.00;99.90
23291;DHT22;11814;44.686;10.842;2023-12-28T05:00:46;6.10;99.90
23291;DHT22;11814;44.686;10.842;2023-12-28T05:03:12;6.00;99.90
23291;DHT22;11814;44.686;10.842;2023-12-28T05:05:37;6.00;99.90
23291;DHT22;11814;44.686;10.842;2023-12-28T05:08:04;6.00;99.90
23291;DHT22;11814;44.686;10.842;2023-12-28T05:10:29;6.00;99.90
23291;DHT22;11814;44.686;10.842;2023-12-28T05:12:55;6.10;99.90
23291;DHT22;11814;44.686;10.842;2023-12-28T05:15:21;6.10;99.90
23291;DHT22;11814;44.686;10.842;2023-12-28T05:17:46;6.00;99.90
23291;DHT22;11814;44.686;10.842;2023-12-28T05:20:12;6.10;99.90
23291;DHT22;11814;44.686;10.842;2023-12-28T05:22:37;5.90;99.90
23291;DHT22;11814;44.686;10.842;2023-12-28T05:25:03;5.80;99.90
23291;DHT22;11814;44.686;10.842;2023-12-28T05:27:29;5.80;99.90
23291;DHT22;11814;44.686;10.842;2023-12-28T05:29:55;5.70;99.90
23291;DHT22;11814;44.686;10.842;2023-12-28T05:32:20;5.80;99.90
23291;DHT22;11814;44.686;10.842;2023-12-28T05:34:46;5.80;99.90
23291;DHT22;11814;44.686;10.842;2023-12-28T05:37:11;5.80;99.90
23291;DHT22;11814;44.686;10.842;2023-12-28T05:39:37;5.80;99.90
23291;DHT22;11814;44.686;10.842;2023-12-28T05:42:03;5.70;99.90
23291;DHT22;11814;44.686;10.842;2023-12-28T05:44:28;5.80;99.90
23291;DHT22;11814;44.686;10.842;2023-12-28T05:46:54;5.70;99.90
23291;DHT22;11814;44.686;10.842;2023-12-28T05:49:19;5.80;99.90
23291;DHT22;11814;44.686;10.842;2023-12-28T05:51:45;5.80;99.90
23291;DHT22;11814;44.686;10.842;2023-12-28T05:54:10;5.70;99.90
23291;DHT22;11814;44.686;10.842;2023-12-28T05:56:37;5.70;99.90
23291;DHT22;11814;44.686;10.842;2023-12-28T05:59:03;5.70;99.90
23291;DHT22;11814;44.686;10.842;2023-12-28T06:01:28;5.70;99.90
23291;DHT22;11814;44.686;10.842;2023-12-28T06:03:54;5.70;99.90
23291;DHT22;11814;44.686;10.842;2023-12-28T06:06:20;5.80;99.90
23291;DHT22;11814;44.686;10.842;2023-12-28T06:08:46;5.80;99.90
23291;DHT22;11814;44.686;10.842;2023-12-28T06:11:12;5.80;99.90
23291;DHT22;11814;44.686;10.842;2023-12-28T06:13:37;5.80;99.90
23291;DHT22;11814;44.686;10.842;2023-12-28T06:16:03;5.80;99.90
23291;DHT22;11814;44.686;10.842;2023-12-28T06:18:29;5.70;99.90
23291;DHT22;11814;44.686;10.842;2023-12-28T06:20:55;5.70;99.90
23291;DHT22;11814;44.686;10.842;2023-12-28T06:23:20;5.60;99.90
23291;DHT22;11814;44.686;10.842;2023-12-28T06:25:46;5.60;99.90
23291;DHT22;11814;44.686;10.842;2023-12-28T06:28:12;5.60;99.90
23291;DHT22;11814;44.686;10.842;2023-12-28T06:30:37;5.60;99.90
23291;DHT22;11814;44.686;10.842;2023-12-28T06:33:05;5.60;99.90
23291;DHT22;11814;44.686;10.842;2023-12-28T06:35:30;5.60;99.90
23291;DHT22;11814;44.686;10.842;2023-12-28T06:37:56;5.70;99.90
23291;DHT22;11814;44.686;10.842;2023-12-28T06:40:22;5.50;99.90
23291;DHT22;11814;44.686;10.842;2023-12-28T06:42:47;5.50;99.90
23291;DHT22;11814;44.686;10.842;2023-12-28T06:45:13;5.40;99.90
23291;DHT22;11814;44.686;10.842;2023-12-28T06:47:38;5.40;99.90
23291;DHT22;11814;44.686;10.842;2023-12-28T06:50:05;5.30;99.90
23291;DHT22;11814;44.686;10.842;2023-12-28T06:52:30;5.30;99.90
23291;DHT22;11814;44.686;10.842;2023-12-28T06:54:57;5.30;99.90
23291;DHT22;11814;44.686;10.842;2023-12-28T06:57:22;5.30;99.90
23291;DHT22;11814;44.686;10.842;2023-12-28T06:59:48;5.30;99.90
23291;DHT22;11814;44.686;10.842;2023-12-28T07:02:13;5.30;99.90
23291;DHT22;11814;44.686;10.842;2023-12-28T07:04:39;5.40;99.90
23291;DHT22;11814;44.686;10.842;2023-12-28T07:07:05;5.40;99.90
23291;DHT22;11814;44.686;10.842;2023-12-28T07:09:30;5.40;99.90
23291;DHT22;11814;44.686;10.842;2023-12-28T07:11:56;5.40;99.90
23291;DHT22;11814;44.686;10.842;2023-12-28T07:14:22;5.40;99.90
23291;DHT22;11814;44.686;10.842;2023-12-28T07:16:47;5.40;99.90
23291;DHT22;11814;44.686;10.842;2023-12-28T07:19:13;5.50;99.90
23291;DHT22;11814;44.686;10.842;2023-12-28T07:21:38;5.50;99.90
23291;DHT22;11814;44.686;10.842;2023-12-28T07:24:04;5.50;99.90
23291;DHT22;11814;44.686;10.842;2023-12-28T07:26:30;5.60;99.90
23291;DHT22;11814;44.686;10.842;2023-12-28T07:28:56;5.60;99.90
23291;DHT22;11814;44.686;10.842;2023-12-28T07:31:27;5.70;99.90
23291;DHT22;11814;44.686;10.842;2023-12-28T07:33:54;5.70;99.90
23291;DHT22;11814;44.686;10.842;2023-12-28T07:36:20;5.80;99.90
23291;DHT22;11814;44.686;10.842;2023-12-28T07:38:46;5.90;99.90
23291;DHT22;11814;44.686;10.842;2023-12-28T07:41:12;5.90;99.90
23291;DHT22;11814;44.686;10.842;2023-12-28T07:43:37;6.20;99.90
23291;DHT22;11814;44.686;10.842;2023-12-28T07:46:03;6.40;99.90
23291;DHT22;11814;44.686;10.842;2023-12-28T07:48:30;6.90;99.90
23291;DHT22;11814;44.686;10.842;2023-12-28T07:50:56;7.30;99.90
23291;DHT22;11814;44.686;10.842;2023-12-28T07:53:22;7.90;99.90
23291;DHT22;11814;44.686;10.842;2023-12-28T07:55:48;8.60;99.90
23291;DHT22;11814;44.686;10.842;2023-12-28T07:58:14;9.20;99.90
23291;DHT22;11814;44.686;10.842;2023-12-28T08:00:40;9.90;99.90
23291;DHT22;11814;44.686;10.842;2023-12-28T08:03:05;10.60;99.90
23291;DHT22;11814;44.686;10.842;2023-12-28T08:05:31;11.30;99.90
23291;DHT22;11814;44.686;10.842;2023-12-28T08:07:56;12.00;99.90
23291;DHT22;11814;44.686;10.842;2023-12-28T08:10:22;12.50;99.90
23291;DHT22;11814;44.686;10.842;2023-12-28T08:12:48;13.00;99.90
23291;DHT22;11814;44.686;10.842;2023-12-28T08:15:13;13.50;99.90
23291;DHT22;11814;44.686;10.842;2023-12-28T08:17:39;13.80;97.50
23291;DHT22;11814;44.686;10.842;2023-12-28T08:20:06;14.10;95.00
23291;DHT22;11814;44.686;10.842;2023-12-28T08:22:32;14.20;92.60
23291;DHT22;11814;44.686;10.842;2023-12-28T08:24:57;14.50;91.60
23291;DHT22;11814;44.686;10.842;2023-12-28T08:27:23;14.60;90.40
23291;DHT22;11814;44.686;10.842;2023-12-28T08:29:49;14.60;88.50
23291;DHT22;11814;44.686;10.842;2023-12-28T08:32:15;14.70;87.60
23291;DHT22;11814;44.686;10.842;2023-12-28T08:34:40;14.90;86.30
23291;DHT22;11814;44.686;10.842;2023-12-28T08:37:06;15.10;84.80
23291;DHT22;11814;44.686;10.842;2023-12-28T08:39:32;15.30;83.80
23291;DHT22;11814;44.686;10.842;2023-12-28T08:41:58;15.30;82.70
23291;DHT22;11814;44.686;10.842;2023-12-28T08:44:23;15.20;82.30
23291;DHT22;11814;44.686;10.842;2023-12-28T08:46:49;15.10;81.90
23291;DHT22;11814;44.686;10.842;2023-12-28T08:49:15;15.10;82.00
23291;DHT22;11814;44.686;10.842;2023-12-28T08:51:41;15.10;82.10
23291;DHT22;11814;44.686;10.842;2023-12-28T08:54:07;15.20;82.00
23291;DHT22;11814;44.686;10.842;2023-12-28T08:56:34;15.10;81.60
23291;DHT22;11814;44.686;10.842;2023-12-28T08:59:01;15.10;82.10
23291;DHT22;11814;44.686;10.842;2023-12-28T09:01:26;15.10;82.10
23291;DHT22;11814;44.686;10.842;2023-12-28T09:03:53;15.20;82.50
23291;DHT22;11814;44.686;10.842;2023-12-28T09:06:20;15.50;82.90
23291;DHT22;11814;44.686;10.842;2023-12-28T09:08:50;15.80;82.20
23291;DHT22;11814;44.686;10.842;2023-12-28T09:11:18;16.00;81.40
23291;DHT22;11814;44.686;10.842;2023-12-28T09:13:43;16.10;81.30
23291;DHT22;11814;44.686;10.842;2023-12-28T09:16:13;16.30;81.20
23291;DHT22;11814;44.686;10.842;2023-12-28T09:18:40;16.70;80.80
23291;DHT22;11814;44.686;10.842;2023-12-28T09:21:07;17.20;80.40
23291;DHT22;11814;44.686;10.842;2023-12-28T09:23:33;17.60;79.40
23291;DHT22;11814;44.686;10.842;2023-12-28T09:26:00;18.20;77.70
23291;DHT22;11814;44.686;10.842;2023-12-28T09:28:26;18.50;76.30
23291;DHT22;11814;44.686;10.842;2023-12-28T09:30:51;18.80;75.20
23291;DHT22;11814;44.686;10.842;2023-12-28T09:33:17;19.10;74.20
23291;DHT22;11814;44.686;10.842;2023-12-28T09:35:43;19.50;72.90
23291;DHT22;11814;44.686;10.842;2023-12-28T09:38:08;20.00;72.10
23291;DHT22;11814;44.686;10.842;2023-12-28T09:40:35;20.60;70.60
23291;DHT22;11814;44.686;10.842;2023-12-28T09:45:38;21.50;67.10
23291;DHT22;11814;44.686;10.842;2023-12-28T09:48:05;21.80;66.10
23291;DHT22;11814;44.686;10.842;2023-12-28T09:50:32;21.90;65.30
23291;DHT22;11814;44.686;10.842;2023-12-28T09:52:58;22.10;64.20
23291;DHT22;11814;44.686;10.842;2023-12-28T09:55:24;22.40;63.40
23291;DHT22;11814;44.686;10.842;2023-12-28T09:57:51;22.50;62.80
23291;DHT22;11814;44.686;10.842;2023-12-28T10:00:17;22.70;62.20
23291;DHT22;11814;44.686;10.842;2023-12-28T10:02:46;23.20;61.90
23291;DHT22;11814;44.686;10.842;2023-12-28T10:05:14;23.50;60.50
23291;DHT22;11814;44.686;10.842;2023-12-28T10:07:42;23.50;59.70
23291;DHT22;11814;44.686;10.842;2023-12-28T10:10:08;23.50;59.50
23291;DHT22;11814;44.686;10.842;2023-12-28T10:12:34;23.70;59.40
23291;DHT22;11814;44.686;10.842;2023-12-28T10:15:00;23.90;59.10
23291;DHT22;11814;44.686;10.842;2023-12-28T10:17:26;24.00;58.40
23291;DHT22;11814;44.686;10.842;2023-12-28T10:19:53;24.00;58.30
23291;DHT22;11814;44.686;10.842;2023-12-28T10:22:19;24.10;58.00
23291;DHT22;11814;44.686;10.842;2023-12-28T10:24:45;24.10;58.30
23291;DHT22;11814;44.686;10.842;2023-12-28T10:27:13;24.10;57.80
23291;DHT22;11814;44.686;10.842;2023-12-28T10:29:39;24.30;57.70
23291;DHT22;11814;44.686;10.842;2023-12-28T10:32:05;24.40;57.30
23291;DHT22;11814;44.686;10.842;2023-12-28T10:34:31;24.60;57.00
23291;DHT22;11814;44.686;10.842;2023-12-28T10:36:58;24.60;56.90
23291;DHT22;11814;44.686;10.842;2023-12-28T10:39:24;24.60;56.70
23291;DHT22;11814;44.686;10.842;2023-12-28T10:41:53;24.80;56.70
23291;DHT22;11814;44.686;10.842;2023-12-28T10:44:21;25.00;55.90
23291;DHT22;11814;44.686;10.842;2023-12-28T10:46:50;25.00;55.80
23291;DHT22;11814;44.686;10.842;2023-12-28T10:49:21;25.00;55.80
23291;DHT22;11814;44.686;10.842;2023-12-28T10:51:51;25.00;55.70
23291;DHT22;11814;44.686;10.842;2023-12-28T10:57:29;25.10;55.30
23291;DHT22;11814;44.686;10.842;2023-12-28T11:00:02;25.10;55.50
23291;DHT22;11814;44.686;10.842;2023-12-28T11:02:38;25.10;55.50
23291;DHT22;11814;44.686;10.842;2023-12-28T11:05:05;25.20;55.40
23291;DHT22;11814;44.686;10.842;2023-12-28T11:07:32;25.20;55.40
23291;DHT22;11814;44.686;10.842;2023-12-28T11:10:00;25.10;55.10
23291;DHT22;11814;44.686;10.842;2023-12-28T11:12:27;25.10;55.20
23291;DHT22;11814;44.686;10.842;2023-12-28T11:14:54;25.20;55.80
23291;DHT22;11814;44.686;10.842;2023-12-28T11:17:22;25.30;55.10
23291;DHT22;11814;44.686;10.842;2023-12-28T11:19:51;25.30;54.80
23291;DHT22;11814;44.686;10.842;2023-12-28T11:22:19;25.20;54.60
23291;DHT22;11814;44.686;10.842;2023-12-28T11:24:46;25.10;54.90
23291;DHT22;11814;44.686;10.842;2023-12-28T11:27:11;25.30;55.10
23291;DHT22;11814;44.686;10.842;2023-12-28T11:29:38;25.40;54.50
23291;DHT22;11814;44.686;10.842;2023-12-28T11:32:04;25.50;53.90
23291;DHT22;11814;44.686;10.842;2023-12-28T11:34:32;25.40;54.00
23291;DHT22;11814;44.686;10.842;2023-12-28T11:37:06;25.40;54.10
23291;DHT22;11814;44.686;10.842;2023-12-28T11:39:33;25.50;54.80
23291;DHT22;11814;44.686;10.842;2023-12-28T11:42:03;25.40;54.00
23291;DHT22;11814;44.686;10.842;2023-12-28T11:44:30;25.30;54.20
23291;DHT22;11814;44.686;10.842;2023-12-28T11:46:56;25.00;54.40
23291;DHT22;11814;44.686;10.842;2023-12-28T11:49:28;25.00;54.80
23291;DHT22;11814;44.686;10.842;2023-12-28T11:51:57;25.00;54.70
23291;DHT22;11814;44.686;10.842;2023-12-28T11:54:26;24.90;54.90
23291;DHT22;11814;44.686;10.842;2023-12-28T11:56:52;24.60;55.20
23291;DHT22;11814;44.686;10.842;2023-12-28T11:59:22;24.40;55.50
23291;DHT22;11814;44.686;10.842;2023-12-28T12:01:51;24.50;55.50
23291;DHT22;11814;44.686;10.842;2023-12-28T12:04:26;24.50;55.20
23291;DHT22;11814;44.686;10.842;2023-12-28T12:06:51;24.70;55.20
23291;DHT22;11814;44.686;10.842;2023-12-28T12:09:18;24.80;55.10
23291;DHT22;11814;44.686;10.842;2023-12-28T12:11:48;24.90;54.70
23291;DHT22;11814;44.686;10.842;2023-12-28T12:14:13;24.70;54.50
23291;DHT22;11814;44.686;10.842;2023-12-28T12:16:39;24.30;55.00
23291;DHT22;11814;44.686;10.842;2023-12-28T12:19:05;23.80;55.80
23291;DHT22;11814;44.686;10.842;2023-12-28T12:21:34;23.20;56.20
23291;DHT22;11814;44.686;10.842;2023-12-28T12:24:00;22.60;57.30
23291;DHT22;11814;44.686;10.842;2023-12-28T12:26:27;22.10;58.40
23291;DHT22;11814;44.686;10.842;2023-12-28T12:28:52;21.70;59.60
23291;DHT22;11814;44.686;10.842;2023-12-28T12:31:19;21.50;60.50
23291;DHT22;11814;44.686;10.842;2023-12-28T12:33:45;21.30;61.30
23291;DHT22;11814;44.686;10.842;2023-12-28T12:36:10;21.00;61.70
23291;DHT22;11814;44.686;10.842;2023-12-28T12:38:36;20.70;62.10
23291;DHT22;11814;44.686;10.842;2023-12-28T12:41:02;20.40;62.90
23291;DHT22;11814;44.686;10.842;2023-12-28T12:43:28;20.40;63.80
23291;DHT22;11814;44.686;10.842;2023-12-28T12:45:54;20.30;64.10
23291;DHT22;11814;44.686;10.842;2023-12-28T12:48:20;20.20;64.50
23291;DHT22;11814;44.686;10.842;2023-12-28T12:50:45;20.20;64.50
23291;DHT22;11814;44.686;10.842;2023-12-28T12:53:11;20.10;64.80
23291;DHT22;11814;44.686;10.842;2023-12-28T12:55:37;20.10;65.00
23291;DHT22;11814;44.686;10.842;2023-12-28T12:58:11;19.90;65.30
23291;DHT22;11814;44.686;10.842;2023-12-28T13:00:41;19.90;65.70
23291;DHT22;11814;44.686;10.842;2023-12-28T13:03:09;19.80;66.00
23291;DHT22;11814;44.686;10.842;2023-12-28T13:05:36;19.80;66.20
23291;DHT22;11814;44.686;10.842;2023-12-28T13:08:03;19.70;66.00
23291;DHT22;11814;44.686;10.842;2023-12-28T13:10:30;19.60;66.20
23291;DHT22;11814;44.686;10.842;2023-12-28T13:12:55;19.50;66.60
23291;DHT22;11814;44.686;10.842;2023-12-28T13:15:21;19.50;67.20
23291;DHT22;11814;44.686;10.842;2023-12-28T13:17:47;19.60;67.20
23291;DHT22;11814;44.686;10.842;2023-12-28T13:20:12;19.60;67.30
23291;DHT22;11814;44.686;10.842;2023-12-28T13:22:38;19.60;67.20
23291;DHT22;11814;44.686;10.842;2023-12-28T13:25:04;19.70;67.10
23291;DHT22;11814;44.686;10.842;2023-12-28T13:27:29;19.70;67.00
23291;DHT22;11814;44.686;10.842;2023-12-28T13:29:56;19.50;67.00
23291;DHT22;11814;44.686;10.842;2023-12-28T13:32:22;19.40;67.40
23291;DHT22;11814;44.686;10.842;2023-12-28T13:34:49;19.30;67.90
23291;DHT22;11814;44.686;10.842;2023-12-28T13:37:16;19.10;68.20
23291;DHT22;11814;44.686;10.842;2023-12-28T13:39:42;19.10;68.40
23291;DHT22;11814;44.686;10.842;2023-12-28T13:42:08;18.90;68.70
23291;DHT22;11814;44.686;10.842;2023-12-28T13:44:34;18.70;69.20
23291;DHT22;11814;44.686;10.842;2023-12-28T13:47:04;18.50;69.60
23291;DHT22;11814;44.686;10.842;2023-12-28T13:49:31;18.30;70.00
23291;DHT22;11814;44.686;10.842;2023-12-28T13:51:57;18.10;71.40
23291;DHT22;11814;44.686;10.842;2023-12-28T13:54:23;18.00;71.20
23291;DHT22;11814;44.686;10.842;2023-12-28T13:56:49;18.00;71.90
23291;DHT22;11814;44.686;10.842;2023-12-28T13:59:15;17.80;72.00
23291;DHT22;11814;44.686;10.842;2023-12-28T14:01:41;17.60;72.50
23291;DHT22;11814;44.686;10.842;2023-12-28T14:04:06;17.40;73.40
23291;DHT22;11814;44.686;10.842;2023-12-28T14:06:32;17.40;74.00
23291;DHT22;11814;44.686;10.842;2023-12-28T14:08:58;17.30;75.00
23291;DHT22;11814;44.686;10.842;2023-12-28T14:11:24;17.30;74.60
23291;DHT22;11814;44.686;10.842;2023-12-28T14:13:50;17.20;74.90
23291;DHT22;11814;44.686;10.842;2023-12-28T14:16:16;17.20;75.10
23291;DHT22;11814;44.686;10.842;2023-12-28T14:18:41;17.00;75.50
23291;DHT22;11814;44.686;10.842;2023-12-28T14:21:11;16.90;76.00
23291;DHT22;11814;44.686;10.842;2023-12-28T14:23:38;16.80;76.50
23291;DHT22;11814;44.686;10.842;2023-12-28T14:26:13;16.80;76.70
23291;DHT22;11814;44.686;10.842;2023-12-28T14:28:42;16.70;77.10
23291;DHT22;11814;44.686;10.842;2023-12-28T14:31:10;16.70;77.50
23291;DHT22;11814;44.686;10.842;2023-12-28T14:33:36;16.70;77.60
23291;DHT22;11814;44.686;10.842;2023-12-28T14:36:02;16.70;77.80
23291;DHT22;11814;44.686;10.842;2023-12-28T14:38:29;16.70;78.00
23291;DHT22;11814;44.686;10.842;2023-12-28T14:40:55;16.60;78.10
23291;DHT22;11814;44.686;10.842;2023-12-28T14:43:21;16.50;78.40
23291;DHT22;11814;44.686;10.842;2023-12-28T14:45:46;16.40;78.80
23291;DHT22;11814;44.686;10.842;2023-12-28T14:48:13;16.30;79.20
23291;DHT22;11814;44.686;10.842;2023-12-28T14:50:39;16.20;79.70
23291;DHT22;11814;44.686;10.842;2023-12-28T14:53:04;16.10;80.00
23291;DHT22;11814;44.686;10.842;2023-12-28T14:55:30;16.00;80.30
23291;DHT22;11814;44.686;10.842;2023-12-28T14:57:55;15.90;80.60
23291;DHT22;11814;44.686;10.842;2023-12-28T15:00:21;15.70;81.10
23291;DHT22;11814;44.686;10.842;2023-12-28T15:02:47;15.60;81.50
23291;DHT22;11814;44.686;10.842;2023-12-28T15:05:12;15.50;81.90
23291;DHT22;11814;44.686;10.842;2023-12-28T15:07:38;15.40;82.40
23291;DHT22;11814;44.686;10.842;2023-12-28T15:10:05;15.30;83.00
23291;DHT22;11814;44.686;10.842;2023-12-28T15:12:33;15.20;83.30
23291;DHT22;11814;44.686;10.842;2023-12-28T15:14:59;15.00;83.70
23291;DHT22;11814;44.686;10.842;2023-12-28T15:17:25;14.90;84.20
23291;DHT22;11814;44.686;10.842;2023-12-28T15:19:51;14.80;84.60
23291;DHT22;11814;44.686;10.842;2023-12-28T15:22:17;14.70;85.00
23291;DHT22;11814;44.686;10.842;2023-12-28T15:24:43;14.60;85.40